Time;durP1;ratioP1;P1;durP2;ratioP2;P2;SDS_P1;SDS_P2;PMS_P1;PMS_P2;Temp;Humidity;BMP_temperature;BMP_pressure;BME280_temperature;BME280_humidity;BME280_pressure;Samples;Min_cycle;Max_cycle;Signal;HPM_P1;HPM_P2
2021/03/19 00:00:43;;;;;;;0.00;0.00;;;16.10;58.50;;;;;;4179495;28;20436;-42
2021/03/19 00:03:03;;;;;;;;;;;16.10;58.50;;;;;;4179778;28;20057;-42
2021/03/19 00:05:28;;;;;;;0.00;0.00;;;16.00;58.60;;;;;;4192050;28;19968;-42
2021/03/19 00:07:51;;;;;;;0.00;0.00;;;16.10;58.70;;;;;;4194701;28;20049;-42
2021/03/19 00:10:14;;;;;;;0.00;0.00;;;16.10;58.40;;;;;;4195856;28;20064;-44
2021/03/19 00:12:36;;;;;;;0.00;0.00;;;16.20;58.40;;;;;;4179197;28;20080;-42
2021/03/19 00:14:57;;;;;;;1.67;1.58;;;16.20;58.30;;;;;;4179168;28;20521;-41
2021/03/19 00:17:17;;;;;;;0.90;0.90;;;16.10;58.40;;;;;;4191034;28;20135;-42
2021/03/19 00:19:39;;;;;;;0.00;0.00;;;16.10;58.60;;;;;;4195577;28;20135;-41
2021/03/19 00:22:00;;;;;;;0.00;0.00;;;16.10;58.70;;;;;;4195590;28;20063;-42
2021/03/19 00:24:21;;;;;;;0.00;0.00;;;16.00;58.80;;;;;;4195612;28;20057;-42
2021/03/19 00:26:42;;;;;;;0.10;0.10;;;16.00;59.00;;;;;;4195627;28;20064;-42
2021/03/19 00:29:03;;;;;;;0.00;0.00;;;15.90;59.30;;;;;;4195421;28;20412;-42
2021/03/19 00:31:24;;;;;;;0.00;0.00;;;15.80;59.50;;;;;;4195396;28;20102;-41
2021/03/19 00:33:46;;;;;;;0.43;0.43;;;15.90;59.40;;;;;;4195436;28;20059;-41
2021/03/19 00:36:07;;;;;;;0.00;0.00;;;16.00;59.20;;;;;;4195194;28;20060;-41
2021/03/19 00:38:29;;;;;;;0.00;0.00;;;16.10;59.00;;;;;;4195489;28;20049;-42
2021/03/19 00:40:50;;;;;;;0.00;0.00;;;16.10;58.90;;;;;;4195357;28;20040;-41
2021/03/19 00:43:13;;;;;;;0.00;0.00;;;16.20;58.90;;;;;;4195523;28;20052;-45
2021/03/19 00:45:35;;;;;;;0.00;0.00;;;16.30;58.60;;;;;;4195388;28;20060;-45
2021/03/19 00:47:56;;;;;;;0.30;0.30;;;16.30;58.40;;;;;;4186546;28;20503;-42
2021/03/19 00:50:20;;;;;;;0.00;0.00;;;16.30;58.40;;;;;;4195635;28;20553;-42
2021/03/19 00:52:41;;;;;;;0.25;0.25;;;16.20;58.50;;;;;;4195468;28;20053;-41
2021/03/19 00:55:06;;;;;;;0.00;0.00;;;16.20;58.80;;;;;;4194941;28;20056;-41
2021/03/19 00:57:27;;;;;;;0.03;0.03;;;16.20;58.70;;;;;;4177818;28;20138;-41
2021/03/19 00:59:47;;;;;;;0.00;0.00;;;16.20;58.80;;;;;;4178825;28;20507;-41
2021/03/19 01:02:09;;;;;;;0.00;0.00;;;16.10;58.90;;;;;;4178846;28;20084;-41
2021/03/19 01:04:30;;;;;;;0.00;0.00;;;16.00;59.10;;;;;;4186448;28;20052;-42
2021/03/19 01:06:51;;;;;;;0.00;0.00;;;16.00;59.20;;;;;;4195297;28;20114;-41
2021/03/19 01:09:12;;;;;;;0.00;0.00;;;15.90;59.30;;;;;;4194306;28;20061;-42
2021/03/19 01:11:33;;;;;;;0.00;0.00;;;15.90;59.50;;;;;;4195359;28;20059;-41
2021/03/19 01:13:55;;;;;;;0.00;0.00;;;15.80;59.70;;;;;;4195251;28;20059;-42
2021/03/19 01:16:16;;;;;;;;;;;15.70;59.80;;;;;;4195241;28;20082;-41
2021/03/19 01:18:37;;;;;;;0.22;0.22;;;15.70;60.20;;;;;;4195166;28;19928;-41
2021/03/19 01:21:07;;;;;;;0.00;0.00;;;15.70;60.20;;;;;;4195217;28;20478;-42
2021/03/19 01:23:28;;;;;;;0.00;0.00;;;15.80;59.90;;;;;;4195199;28;20052;-41
2021/03/19 01:25:49;;;;;;;0.00;0.00;;;16.00;60.30;;;;;;4194945;28;20056;-41
2021/03/19 01:28:14;;;;;;;0.00;0.00;;;16.10;59.20;;;;;;4195188;28;20056;-42
2021/03/19 01:30:38;;;;;;;0.10;0.10;;;16.20;59.00;;;;;;4197878;28;20123;-41
2021/03/19 01:32:59;;;;;;;0.00;0.00;;;16.20;59.00;;;;;;4197581;28;20045;-41
2021/03/19 01:35:22;;;;;;;0.35;0.35;;;16.30;58.60;;;;;;4198198;28;20053;-42
2021/03/19 01:37:44;;;;;;;8.88;2.40;;;16.50;58.20;;;;;;4198187;28;20096;-42
2021/03/19 01:40:06;;;;;;;0.00;0.00;;;16.50;57.90;;;;;;4198036;28;20053;-41
2021/03/19 01:42:27;;;;;;;0.00;0.00;;;16.50;57.90;;;;;;4197673;28;20438;-41
2021/03/19 01:45:30;;;;;;;0.05;0.05;;;16.50;58.00;;;;;;4197699;28;20489;-41
2021/03/19 01:48:29;;;;;;;0.20;0.20;;;16.30;58.30;;;;;;4196908;28;20060;-42
2021/03/19 01:51:27;;;;;;;0.10;0.10;;;16.20;58.70;;;;;;4197772;28;20530;-42
2021/03/19 01:54:26;;;;;;;0.00;0.00;;;16.20;58.90;;;;;;4194736;28;20076;-42
2021/03/19 01:57:24;;;;;;;0.00;0.00;;;16.10;59.10;;;;;;4181341;28;20081;-41
2021/03/19 02:00:23;;;;;;;0.00;0.00;;;16.00;59.40;;;;;;4185027;28;20066;-41
2021/03/19 02:03:21;;;;;;;0.00;0.00;;;16.00;59.60;;;;;;4197710;28;20052;-41
2021/03/19 02:06:19;;;;;;;0.00;0.00;;;16.00;59.60;;;;;;4197868;28;20055;-46
2021/03/19 02:09:17;;;;;;;0.20;0.20;;;15.90;59.60;;;;;;4197491;28;20117;-45
2021/03/19 02:12:15;;;;;;;0.00;0.00;;;15.90;59.90;;;;;;4197626;28;20052;-41
2021/03/19 02:15:13;;;;;;;0.00;0.00;;;15.80;60.20;;;;;;4197333;28;20106;-41
2021/03/19 02:18:12;;;;;;;0.00;0.00;;;15.70;60.50;;;;;;4197598;28;20402;-41
2021/03/19 02:21:10;;;;;;;0.20;0.20;;;15.60;60.90;;;;;;4197446;28;20052;-42
2021/03/19 02:24:09;;;;;;;0.00;0.00;;;15.60;60.90;;;;;;4197263;28;20045;-42
2021/03/19 02:27:07;;;;;;;0.00;0.00;;;15.70;60.70;;;;;;4197280;28;20048;-41
2021/03/19 02:30:05;;;;;;;0.00;0.00;;;16.00;59.80;;;;;;4197199;28;20055;-41
2021/03/19 02:32:28;;;;;;;0.00;0.00;;;16.30;59.10;;;;;;4180810;28;20052;-44
2021/03/19 02:34:55;;;;;;;0.00;0.00;;;16.40;58.70;;;;;;4196624;28;20052;-49
2021/03/19 02:37:19;;;;;;;0.00;0.00;;;16.50;58.40;;;;;;4197313;28;20408;-43
2021/03/19 02:39:40;;;;;;;0.00;0.00;;;16.50;58.20;;;;;;4197201;28;20052;-42
2021/03/19 02:42:01;;;;;;;0.00;0.00;;;16.60;58.00;;;;;;4196261;28;20469;-42
2021/03/19 02:44:22;;;;;;;0.00;0.00;;;16.60;57.90;;;;;;4196933;28;20426;-41
2021/03/19 02:46:43;;;;;;;0.00;0.00;;;16.60;58.00;;;;;;4197103;28;20052;-42
2021/03/19 02:49:05;;;;;;;0.00;0.00;;;16.50;58.20;;;;;;4196827;28;20057;-42
2021/03/19 02:51:26;;;;;;;0.00;0.00;;;16.40;58.40;;;;;;4180574;28;20127;-41
2021/03/19 02:53:47;;;;;;;0.00;0.00;;;16.30;58.70;;;;;;4182079;28;20122;-42
2021/03/19 02:56:10;;;;;;;0.00;0.00;;;16.30;58.90;;;;;;4196999;28;20053;-42
2021/03/19 02:58:31;;;;;;;0.00;0.00;;;16.30;59.00;;;;;;4196709;28;20535;-42
2021/03/19 03:00:52;;;;;;;0.00;0.00;;;16.20;59.10;;;;;;4184533;28;20071;-44
2021/03/19 03:03:14;;;;;;;0.22;0.22;;;16.10;59.30;;;;;;4196618;28;20055;-41
2021/03/19 03:05:36;;;;;;;0.00;0.00;;;16.10;59.50;;;;;;4196745;28;20097;-41
2021/03/19 03:07:57;;;;;;;2.65;1.30;;;16.00;59.50;;;;;;4196482;28;20057;-44
2021/03/19 03:10:21;;;;;;;0.10;0.10;;;16.00;59.60;;;;;;4196350;28;20052;-42
2021/03/19 03:12:42;;;;;;;0.00;0.00;;;15.90;59.80;;;;;;4196601;28;20525;-42
2021/03/19 03:15:05;;;;;;;0.00;0.00;;;15.90;60.00;;;;;;4196262;28;20118;-42
2021/03/19 03:17:26;;;;;;;0.00;0.00;;;16.00;59.80;;;;;;4196705;28;20064;-41
2021/03/19 03:19:48;;;;;;;0.00;0.00;;;16.10;59.50;;;;;;4196593;28;20553;-41
2021/03/19 03:22:10;;;;;;;;;;;16.30;59.10;;;;;;4193256;28;20071;-41
2021/03/19 03:24:32;;;;;;;0.00;0.00;;;16.40;58.70;;;;;;4179992;28;20276;-41
2021/03/19 03:26:53;;;;;;;0.00;0.00;;;16.60;58.30;;;;;;4179808;28;20057;-41
2021/03/19 03:29:14;;;;;;;0.00;0.00;;;16.70;57.90;;;;;;4192123;28;20499;-44
2021/03/19 03:31:35;;;;;;;0.00;0.00;;;16.70;57.80;;;;;;4196301;28;20048;-42
2021/03/19 03:33:56;;;;;;;0.00;0.00;;;16.70;57.70;;;;;;4196278;28;20048;-42
2021/03/19 03:36:17;;;;;;;0.00;0.00;;;16.80;57.60;;;;;;4196103;28;20056;-41
2021/03/19 03:38:39;;;;;;;0.00;0.00;;;16.80;57.60;;;;;;4196332;28;20166;-41
2021/03/19 03:41:03;;;;;;;0.55;0.55;;;16.70;57.70;;;;;;4195967;28;20044;-42
2021/03/19 03:43:25;;;;;;;0.55;0.55;;;16.80;57.70;;;;;;4195797;28;20549;-42
2021/03/19 03:45:46;;;;;;;0.00;0.00;;;16.90;57.30;;;;;;4196221;28;20533;-42
2021/03/19 03:48:09;;;;;;;0.00;0.00;;;17.00;57.00;;;;;;4196089;28;20088;-41
2021/03/19 03:50:32;;;;;;;0.00;0.00;;;17.10;56.80;;;;;;4195976;28;20052;-41
2021/03/19 03:52:58;;;;;;;0.00;0.00;;;17.10;56.70;;;;;;4194930;28;20060;-42
2021/03/19 03:55:21;;;;;;;0.00;0.00;;;17.00;56.80;;;;;;4196062;28;20090;-42
2021/03/19 03:57:42;;;;;;;0.20;0.20;;;16.90;57.10;;;;;;4195820;28;20056;-43
2021/03/19 04:00:05;;;;;;;0.00;0.00;;;16.80;57.30;;;;;;4179510;28;20594;-46
2021/03/19 04:02:35;;;;;;;0.20;0.20;;;16.60;57.70;;;;;;4190629;28;20415;-43
2021/03/19 04:04:56;;;;;;;0.00;0.00;;;16.50;58.10;;;;;;4195572;28;20044;-44
2021/03/19 04:07:18;;;;;;;0.00;0.00;;;16.30;58.50;;;;;;4195770;28;20049;-45
2021/03/19 04:09:38;;;;;;;0.00;0.00;;;16.30;58.90;;;;;;4195808;28;20045;-44
2021/03/19 04:12:00;;;;;;;0.00;0.00;;;16.30;59.00;;;;;;4195988;28;20052;-43
2021/03/19 04:14:21;;;;;;;0.00;0.00;;;16.40;58.70;;;;;;4195716;28;20052;-44
2021/03/19 04:16:42;;;;;;;0.63;0.63;;;16.50;58.40;;;;;;4195822;28;20056;-43
2021/03/19 04:19:03;;;;;;;0.00;0.00;;;16.50;58.20;;;;;;4195550;28;20053;-43
2021/03/19 04:21:24;;;;;;;0.00;0.00;;;16.50;58.20;;;;;;4195642;28;20517;-45
2021/03/19 04:23:48;;;;;;;0.00;0.00;;;16.50;58.30;;;;;;4195802;28;20048;-44
2021/03/19 04:26:21;;;;;;;0.00;0.00;;;16.50;58.20;;;;;;4195716;28;20053;-42
2021/03/19 04:28:43;;;;;;;0.10;0.10;;;16.60;58.10;;;;;;4195302;28;20136;-41
2021/03/19 04:31:06;;;;;;;0.00;0.00;;;16.50;58.20;;;;;;4195401;28;20084;-45
2021/03/19 04:33:29;;;;;;;0.00;0.00;;;16.50;58.40;;;;;;4195515;28;20110;-42
2021/03/19 04:35:56;;;;;;;0.00;0.00;;;16.40;58.40;;;;;;4195655;28;20053;-42
2021/03/19 04:38:18;;;;;;;4.10;0.70;;;16.40;58.50;;;;;;4195551;28;20048;-42
2021/03/19 04:40:41;;;;;;;0.00;0.00;;;16.30;58.70;;;;;;4195371;28;20072;-41
2021/03/19 04:43:03;;;;;;;0.00;0.00;;;16.20;58.90;;;;;;4183192;28;20462;-41
2021/03/19 04:45:26;;;;;;;0.00;0.00;;;16.20;58.90;;;;;;4195444;28;20550;-41
2021/03/19 04:47:48;;;;;;;0.00;0.00;;;16.40;58.70;;;;;;4195385;28;20494;-41
2021/03/19 04:50:12;;;;;;;0.00;0.00;;;16.50;58.40;;;;;;4195589;28;20079;-42
2021/03/19 04:52:33;;;;;;;0.00;0.00;;;16.50;58.10;;;;;;4195017;28;20057;-41
2021/03/19 04:54:54;;;;;;;0.00;0.00;;;16.60;57.90;;;;;;4195560;28;20052;-41
2021/03/19 04:57:15;;;;;;;0.00;0.00;;;16.60;57.80;;;;;;4195489;28;20506;-43
2021/03/19 04:59:36;;;;;;;0.00;0.00;;;16.70;57.80;;;;;;4179107;28;20057;-42
2021/03/19 05:02:00;;;;;;;0.38;0.38;;;16.60;58.00;;;;;;4189414;28;20056;-42
2021/03/19 05:04:22;;;;;;;0.10;0.10;;;16.50;58.20;;;;;;4197033;28;20521;-41
2021/03/19 05:06:43;;;;;;;0.00;0.00;;;16.30;58.50;;;;;;4198570;28;20063;-42
2021/03/19 05:09:04;;;;;;;;;;;16.30;58.70;;;;;;4199137;28;20156;-42
2021/03/19 05:11:25;;;;;;;0.00;0.00;;;16.40;58.70;;;;;;4198236;28;19931;-42
2021/03/19 05:13:46;;;;;;;0.00;0.00;;;16.40;58.40;;;;;;4198137;28;20082;-41
2021/03/19 05:16:07;;;;;;;0.27;0.27;;;16.50;58.30;;;;;;4198492;28;20052;-41
2021/03/19 05:18:29;;;;;;;0.00;0.00;;;16.60;58.00;;;;;;4198419;28;20773;-44
2021/03/19 05:20:49;;;;;;;;;;;16.80;57.70;;;;;;4198765;28;20052;-41
2021/03/19 05:23:19;;;;;;;0.00;0.00;;;16.90;57.30;;;;;;4198467;28;19934;-41
2021/03/19 05:25:40;;;;;;;0.00;0.00;;;17.00;57.00;;;;;;4198367;28;20055;-42
2021/03/19 05:28:01;;;;;;;0.00;0.00;;;17.00;57.00;;;;;;4197902;28;20056;-42
2021/03/19 05:30:24;;;;;;;0.00;0.00;;;16.90;57.10;;;;;;4198120;28;20060;-42
2021/03/19 05:32:45;;;;;;;0.00;0.00;;;16.80;57.30;;;;;;4187922;28;20049;-42
2021/03/19 05:35:09;;;;;;;0.00;0.00;;;16.70;57.70;;;;;;4198213;28;20052;-42
2021/03/19 05:37:31;;;;;;;0.00;0.00;;;16.60;58.00;;;;;;4198048;28;20059;-42
2021/03/19 05:39:52;;;;;;;0.00;0.00;;;16.40;58.30;;;;;;4198210;28;20492;-41
2021/03/19 05:42:17;;;;;;;0.00;0.00;;;16.30;58.60;;;;;;4197291;28;20060;-41
2021/03/19 05:44:44;;;;;;;0.00;0.00;;;16.30;59.60;;;;;;4198168;28;20059;-42
2021/03/19 05:47:05;;;;;;;0.00;0.00;;;16.30;58.80;;;;;;4197924;28;20071;-42
2021/03/19 05:49:29;;;;;;;0.55;0.55;;;16.40;58.50;;;;;;4197913;28;20052;-41
2021/03/19 05:51:53;;;;;;;1.17;1.17;;;16.50;58.20;;;;;;4197546;28;20060;-41
2021/03/19 05:54:29;;;;;;;0.35;0.35;;;16.60;58.10;;;;;;4197897;28;20052;-44
2021/03/19 05:57:13;;;;;;;1.25;0.70;;;16.70;57.90;;;;;;4196628;28;20057;-41
2021/03/19 05:59:36;;;;;;;0.00;0.00;;;16.80;57.50;;;;;;4197791;28;20499;-43
2021/03/19 06:01:57;;;;;;;0.00;0.00;;;16.90;57.40;;;;;;4197587;28;20052;-44
2021/03/19 06:04:21;;;;;;;45.88;1.38;;;16.80;57.40;;;;;;4197877;28;20059;-44
2021/03/19 06:06:52;;;;;;;0.38;0.38;;;16.70;57.40;;;;;;4197692;28;20127;-42
2021/03/19 06:09:29;;;;;;;0.00;0.00;;;16.60;57.60;;;;;;4197638;28;20181;-42
2021/03/19 06:11:56;;;;;;;0.00;0.00;;;16.50;58.00;;;;;;4197134;28;20139;-41
2021/03/19 06:14:18;;;;;;;0.00;0.00;;;16.50;58.20;;;;;;4197664;28;21024;-41
2021/03/19 06:16:43;;;;;;;0.00;0.00;;;16.60;58.00;;;;;;4196624;28;20053;-41
2021/03/19 06:19:23;;;;;;;0.00;0.00;;;16.80;57.60;;;;;;4197505;28;20499;-41
2021/03/19 06:21:44;;;;;;;0.00;0.00;;;16.80;57.40;;;;;;4197386;28;20510;-42
2021/03/19 06:24:24;;;;;;;0.00;0.00;;;16.70;57.50;;;;;;4197161;28;20070;-41
2021/03/19 06:26:45;;;;;;;0.00;0.00;;;16.60;57.80;;;;;;4180907;28;20056;-41
2021/03/19 06:29:14;;;;;;;0.32;0.32;;;16.50;58.00;;;;;;4197316;28;20131;-41
2021/03/19 06:31:35;;;;;;;0.00;0.00;;;16.40;58.40;;;;;;4196973;28;20048;-42
2021/03/19 06:34:09;;;;;;;0.00;0.00;;;16.30;58.70;;;;;;4197357;28;20053;-41
2021/03/19 06:36:30;;;;;;;0.00;0.00;;;16.30;58.90;;;;;;4197050;28;20052;-41
2021/03/19 06:39:06;;;;;;;0.00;0.00;;;16.30;58.90;;;;;;4196725;28;20465;-41
2021/03/19 06:41:31;;;;;;;0.00;0.00;;;16.30;59.20;;;;;;4196879;28;20445;-42
2021/03/19 06:43:54;;;;;;;0.15;0.15;;;16.20;59.20;;;;;;4196556;28;20084;-41
2021/03/19 06:46:18;;;;;;;0.00;0.00;;;16.20;59.40;;;;;;4180656;28;20056;-41
2021/03/19 06:48:42;;;;;;;0.10;0.10;;;16.10;59.60;;;;;;4183958;28;20141;-40
2021/03/19 06:51:08;;;;;;;0.00;0.00;;;16.00;59.80;;;;;;4197037;28;20137;-41
2021/03/19 06:53:32;;;;;;;0.00;0.00;;;15.90;60.00;;;;;;4196976;28;20474;-41
2021/03/19 06:55:56;;;;;;;0.00;0.00;;;15.80;60.30;;;;;;4196460;28;20067;-42
2021/03/19 06:58:32;;;;;;;0.00;0.00;;;15.80;60.40;;;;;;4192312;28;20052;-43
2021/03/19 07:00:54;;;;;;;0.00;0.00;;;15.90;60.00;;;;;;4196767;28;20156;-44
2021/03/19 07:03:30;;;;;;;0.00;0.00;;;16.20;59.40;;;;;;4195902;28;20793;-45
2021/03/19 07:06:16;;;;;;;3.50;1.00;;;16.30;59.00;;;;;;4195601;28;20044;-41
2021/03/19 07:08:42;;;;;;;0.15;0.15;;;16.40;58.70;;;;;;4179984;28;20443;-42
2021/03/19 07:11:20;;;;;;;0.13;0.13;;;16.50;58.40;;;;;;4180235;28;20400;-41
2021/03/19 07:13:57;;;;;;;0.00;0.00;;;16.60;58.00;;;;;;4180061;28;20053;-41
2021/03/19 07:16:21;;;;;;;0.00;0.00;;;16.70;57.80;;;;;;4181339;28;20044;-42
2021/03/19 07:19:15;;;;;;;0.00;0.00;;;16.70;57.80;;;;;;4196358;28;20053;-41
2021/03/19 07:22:08;;;;;;;0.00;0.00;;;16.60;57.90;;;;;;4196284;28;20051;-41
2021/03/19 07:24:48;;;;;;;0.00;0.00;;;16.60;58.10;;;;;;4196417;28;20055;-42
2021/03/19 07:27:28;;;;;;;0.00;0.00;;;16.60;58.10;;;;;;4195914;28;20056;-44
2021/03/19 07:30:02;;;;;;;2.20;1.35;;;16.80;59.00;;;;;;4196168;28;20064;-42
2021/03/19 07:32:41;;;;;;;0.55;0.55;;;16.90;59.90;;;;;;4196373;28;20131;-42
2021/03/19 07:35:20;;;;;;;0.03;0.03;;;16.90;59.50;;;;;;4196326;28;20134;-42
2021/03/19 07:38:16;;;;;;;0.22;0.22;;;16.90;60.00;;;;;;4196060;28;20423;-42
2021/03/19 07:41:01;;;;;;;0.00;0.00;;;17.00;60.00;;;;;;4196253;28;20049;-42
2021/03/19 07:43:45;;;;;;;0.10;0.10;;;16.90;60.00;;;;;;4194880;28;20057;-41
2021/03/19 07:46:23;;;;;;;0.45;0.45;;;16.90;59.70;;;;;;4194227;28;20560;-42
2021/03/19 07:49:02;;;;;;;0.30;0.30;;;16.90;59.90;;;;;;4195709;28;20526;-41
2021/03/19 07:51:31;;;;;;;0.00;0.00;;;16.80;59.40;;;;;;4193513;28;20053;-46
2021/03/19 07:54:00;;;;;;;0.38;0.38;;;16.80;59.30;;;;;;4195503;28;20048;-42
2021/03/19 07:56:41;;;;;;;6.50;1.65;;;16.80;59.50;;;;;;4188806;28;20102;-43
2021/03/19 07:59:12;;;;;;;18.95;2.53;;;16.90;59.00;;;;;;4192687;28;20461;-41
2021/03/19 08:01:39;;;;;;;0.00;0.00;;;16.90;58.80;;;;;;4190270;28;20080;-42
2021/03/19 08:04:12;;;;;;;0.00;0.00;;;16.90;59.00;;;;;;4195988;28;20052;-44
2021/03/19 08:06:37;;;;;;;0.38;0.38;;;16.70;59.30;;;;;;4194816;28;20074;-43
2021/03/19 08:09:02;;;;;;;0.08;0.08;;;16.60;59.20;;;;;;4195229;28;20063;-43
2021/03/19 08:11:29;;;;;;;0.00;0.00;;;16.50;59.50;;;;;;4195303;28;20052;-43
2021/03/19 08:14:02;;;;;;;2.38;0.85;;;16.40;59.20;;;;;;4195655;28;20049;-42
2021/03/19 08:16:29;;;;;;;0.20;0.20;;;16.20;59.30;;;;;;4195552;28;20055;-42
2021/03/19 08:19:03;;;;;;;0.47;0.45;;;16.10;59.70;;;;;;4195567;28;20060;-43
2021/03/19 08:21:36;;;;;;;0.00;0.00;;;16.00;59.80;;;;;;4195527;28;20071;-42
2021/03/19 08:24:05;;;;;;;0.00;0.00;;;15.90;60.40;;;;;;4195412;28;20099;-42
2021/03/19 08:26:36;;;;;;;0.00;0.00;;;15.70;60.70;;;;;;4191838;28;20131;-42
2021/03/19 08:29:06;;;;;;;0.15;0.15;;;15.60;60.40;;;;;;4195364;28;20503;-41
2021/03/19 08:31:35;;;;;;;0.00;0.00;;;15.50;61.20;;;;;;4195328;28;20495;-43
2021/03/19 08:34:11;;;;;;;0.00;0.00;;;15.60;60.70;;;;;;4195601;28;20049;-43
2021/03/19 08:36:40;;;;;;;0.10;0.10;;;15.60;60.90;;;;;;4195769;28;20458;-48
2021/03/19 08:39:06;;;;;;;0.00;0.00;;;15.60;60.60;;;;;;4194564;28;20058;-45
2021/03/19 08:41:31;;;;;;;0.00;0.00;;;15.60;60.10;;;;;;4195443;28;20609;-45
2021/03/19 08:43:56;;;;;;;0.00;0.00;;;15.60;60.50;;;;;;4195340;28;20057;-47
2021/03/19 08:46:21;;;;;;;8.65;1.35;;;15.60;60.40;;;;;;4195428;28;20075;-47
2021/03/19 08:48:53;;;;;;;0.10;0.10;;;15.60;60.10;;;;;;4194811;28;20061;-48
2021/03/19 08:51:24;;;;;;;0.00;0.00;;;15.60;60.30;;;;;;4193440;28;20076;-43
2021/03/19 08:54:22;;;;;;;0.00;0.00;;;15.70;59.70;;;;;;4195347;28;20135;-46
2021/03/19 08:56:50;;;;;;;0.55;0.55;;;15.90;59.50;;;;;;4126161;28;20051;-46
2021/03/19 08:59:11;;;;;;;0.00;0.00;;;15.90;59.00;;;;;;4127838;28;20058;-42
2021/03/19 09:01:51;;;;;;;0.90;0.70;;;15.90;58.60;;;;;;4156005;28;20048;-43
2021/03/19 09:04:13;;;;;;;0.00;0.00;;;15.90;58.40;;;;;;4195383;28;20048;-42
2021/03/19 09:06:35;;;;;;;0.00;0.00;;;15.80;58.60;;;;;;4195372;28;20080;-43
2021/03/19 09:09:34;;;;;;;0.00;0.00;;;15.70;58.60;;;;;;4195365;28;20410;-42
2021/03/19 09:12:24;;;;;;;0.00;0.00;;;15.50;58.90;;;;;;4192273;28;20059;-46
2021/03/19 09:15:27;;;;;;;0.00;0.00;;;15.50;59.20;;;;;;4195075;28;20521;-45
2021/03/19 09:18:41;;;;;;;0.00;0.00;;;15.40;59.10;;;;;;4190618;28;20067;-43
2021/03/19 09:21:09;;;;;;;0.52;0.52;;;15.30;59.20;;;;;;4194917;28;20113;-43
2021/03/19 09:23:55;;;;;;;3.35;1.83;;;15.20;59.30;;;;;;4194488;28;20131;-40
2021/03/19 09:26:51;;;;;;;0.00;0.00;;;15.20;59.50;;;;;;4193384;28;20186;-43
2021/03/19 09:29:29;;;;;;;0.05;0.05;;;15.10;59.30;;;;;;4194237;28;20510;-43
2021/03/19 09:31:51;;;;;;;0.00;0.00;;;15.10;59.30;;;;;;4195137;28;20063;-45
2021/03/19 09:34:22;;;;;;;0.00;0.00;;;15.10;59.50;;;;;;4195114;28;20045;-45
2021/03/19 09:37:27;;;;;;;0.10;0.10;;;15.30;59.00;;;;;;4194510;28;20143;-44
2021/03/19 09:39:57;;;;;;;0.10;0.10;;;15.40;58.60;;;;;;4194414;28;20376;-45
2021/03/19 09:42:56;;;;;;;0.10;0.10;;;15.60;58.30;;;;;;4194937;28;20060;-43
2021/03/19 09:45:48;;;;;;;0.00;0.00;;;15.60;58.10;;;;;;4127528;28;20184;-43
2021/03/19 09:48:26;;;;;;;0.00;0.00;;;15.60;58.00;;;;;;4126692;28;20059;-43
2021/03/19 09:50:51;;;;;;;0.45;0.45;;;15.80;57.90;;;;;;4183262;28;20473;-43
2021/03/19 09:53:24;;;;;;;0.00;0.00;;;15.90;57.50;;;;;;4198011;28;20044;-43
2021/03/19 09:55:48;;;;;;;0.00;0.00;;;16.00;57.10;;;;;;4197591;28;20461;-44
2021/03/19 09:58:16;;;;;;;0.10;0.10;;;16.10;56.90;;;;;;4196442;28;20127;-43
2021/03/19 10:00:37;;;;;;;0.00;0.00;;;16.00;56.50;;;;;;4197729;28;20487;-43
2021/03/19 10:03:08;;;;;;;0.40;0.40;;;15.90;56.50;;;;;;4197657;28;20063;-46
2021/03/19 10:05:37;;;;;;;0.00;0.00;;;15.80;56.60;;;;;;4197525;28;20102;-44
2021/03/19 10:08:00;;;;;;;0.00;0.00;;;15.80;56.90;;;;;;4197274;28;20087;-43
2021/03/19 10:10:26;;;;;;;0.22;0.22;;;15.80;56.80;;;;;;4197739;28;20052;-44
2021/03/19 10:12:48;;;;;;;0.00;0.00;;;15.80;56.70;;;;;;4197670;28;20160;-43
2021/03/19 10:15:14;;;;;;;0.10;0.10;;;15.80;56.80;;;;;;4196296;28;20059;-44
2021/03/19 10:17:36;;;;;;;0.00;0.00;;;15.80;56.90;;;;;;4195120;28;20056;-43
2021/03/19 10:20:17;;;;;;;0.00;0.00;;;15.70;57.10;;;;;;4197292;28;20053;-43
2021/03/19 10:22:42;;;;;;;0.00;0.00;;;15.70;57.40;;;;;;4197593;28;20064;-45
2021/03/19 10:25:32;;;;;;;0.00;0.00;;;15.70;57.60;;;;;;4197463;28;20048;-44
2021/03/19 10:28:03;;;;;;;0.00;0.00;;;15.70;57.60;;;;;;4197282;28;20060;-44
2021/03/19 10:30:29;;;;;;;0.20;0.20;;;15.90;57.40;;;;;;4194962;28;20127;-43
2021/03/19 10:32:51;;;;;;;0.22;0.22;;;16.00;57.10;;;;;;4197092;28;20056;-44
2021/03/19 10:35:19;;;;;;;0.00;0.00;;;16.10;57.00;;;;;;4196918;28;20048;-45
2021/03/19 10:37:50;;;;;;;0.00;0.00;;;16.10;57.00;;;;;;4180806;28;20111;-43
2021/03/19 10:40:15;;;;;;;0.00;0.00;;;16.10;57.10;;;;;;4193669;28;20063;-44
2021/03/19 10:42:42;;;;;;;0.08;0.08;;;16.10;56.80;;;;;;4197018;28;20053;-45
2021/03/19 10:45:25;;;;;;;0.00;0.00;;;16.10;56.80;;;;;;4196633;28;20061;-43
2021/03/19 10:47:50;;;;;;;0.00;0.00;;;16.10;57.00;;;;;;4194019;28;20106;-46
2021/03/19 10:50:16;;;;;;;0.00;0.00;;;16.00;57.00;;;;;;4196443;28;20128;-43
2021/03/19 10:52:41;;;;;;;0.00;0.00;;;16.00;57.00;;;;;;4196956;28;20056;-43
2021/03/19 10:55:06;;;;;;;0.28;0.28;;;16.00;56.90;;;;;;4196856;28;20056;-44
2021/03/19 10:57:31;;;;;;;0.00;0.00;;;16.00;56.90;;;;;;4196981;28;20060;-44
2021/03/19 10:59:54;;;;;;;0.00;0.00;;;16.10;56.60;;;;;;4195532;28;20534;-43
2021/03/19 11:02:23;;;;;;;0.00;0.00;;;16.20;56.30;;;;;;4195525;28;20056;-42
2021/03/19 11:04:48;;;;;;;0.00;0.00;;;16.30;55.90;;;;;;4195408;28;20105;-44
2021/03/19 11:07:32;;;;;;;0.00;0.00;;;16.30;55.70;;;;;;4196676;28;20052;-45
2021/03/19 11:10:02;;;;;;;0.10;0.10;;;16.30;55.40;;;;;;4195250;28;20044;-44
2021/03/19 11:12:30;;;;;;;0.00;0.00;;;16.20;55.40;;;;;;4196591;28;20052;-47
2021/03/19 11:14:57;;;;;;;0.43;0.43;;;16.10;55.20;;;;;;4196309;28;20139;-47
2021/03/19 11:17:20;;;;;;;0.00;0.00;;;16.00;55.20;;;;;;4196575;28;20078;-46
2021/03/19 11:19:56;;;;;;;0.00;0.00;;;15.90;55.40;;;;;;4196289;28;20056;-45
2021/03/19 11:22:19;;;;;;;0.00;0.00;;;15.90;55.70;;;;;;4183584;28;20044;-44
2021/03/19 11:24:40;;;;;;;0.00;0.00;;;15.80;55.50;;;;;;4195347;28;20075;-45
2021/03/19 11:27:13;;;;;;;0.00;0.00;;;15.70;55.50;;;;;;4196504;28;20060;-44
2021/03/19 11:29:34;;;;;;;0.00;0.00;;;15.60;55.50;;;;;;4195847;28;20064;-49
2021/03/19 11:32:00;;;;;;;5.15;2.83;;;15.50;55.40;;;;;;4194698;28;20072;-49
2021/03/19 11:34:31;;;;;;;7.28;5.13;;;15.50;55.40;;;;;;4195047;28;20533;-44
2021/03/19 11:36:59;;;;;;;3.13;2.53;;;15.40;55.50;;;;;;4179810;28;20053;-44
2021/03/19 11:39:36;;;;;;;6.75;6.10;;;15.40;55.50;;;;;;4179589;28;20060;-47
2021/03/19 11:41:57;;;;;;;10.57;5.35;;;15.40;56.00;;;;;;4179945;28;20063;-47
2021/03/19 11:44:17;;;;;;;3.45;2.90;;;15.30;56.20;;;;;;4179693;28;20080;-44
2021/03/19 11:46:38;;;;;;;33.95;7.72;;;15.30;56.10;;;;;;4185187;28;20058;-45
2021/03/19 11:49:00;;;;;;;4.10;3.72;;;15.20;56.20;;;;;;4195807;28;20063;-44
2021/03/19 11:51:39;;;;;;;7.20;6.22;;;15.20;56.40;;;;;;4196002;28;20129;-45
2021/03/19 11:54:03;;;;;;;9.77;4.55;;;15.10;56.30;;;;;;4183102;28;20123;-45
2021/03/19 11:56:24;;;;;;;17.85;7.78;;;15.00;56.20;;;;;;4195761;28;20501;-46
2021/03/19 11:58:46;;;;;;;5.07;4.47;;;15.00;56.30;;;;;;4196076;28;20516;-46
2021/03/19 12:01:09;;;;;;;6.47;3.63;;;14.90;56.20;;;;;;4195773;28;20052;-46
2021/03/19 12:03:33;;;;;;;5.47;4.95;;;14.90;56.50;;;;;;4195734;28;20572;-44
2021/03/19 12:05:55;;;;;;;2.47;2.25;;;14.80;56.60;;;;;;4195598;28;20102;-44
2021/03/19 12:08:17;;;;;;;42.75;5.40;;;14.80;56.60;;;;;;4195677;28;20063;-44
2021/03/19 12:10:38;;;;;;;5.68;2.60;;;14.80;56.50;;;;;;4195838;28;20102;-45
2021/03/19 12:13:02;;;;;;;1.63;1.42;;;14.70;56.50;;;;;;4195149;28;20552;-44
2021/03/19 12:15:25;;;;;;;19.80;6.88;;;14.70;56.60;;;;;;4195918;28;20532;-44
2021/03/19 12:17:47;;;;;;;10.13;2.30;;;14.70;57.30;;;;;;4195700;28;20467;-43
2021/03/19 12:20:09;;;;;;;13.38;3.47;;;14.70;56.50;;;;;;4195348;28;20098;-44
2021/03/19 12:22:30;;;;;;;7.03;2.20;;;14.70;56.60;;;;;;4195466;28;20052;-43
2021/03/19 12:24:53;;;;;;;1.55;1.45;;;14.70;56.70;;;;;;4195738;28;20049;-45
2021/03/19 12:27:15;;;;;;;8.88;3.55;;;14.70;56.80;;;;;;4195681;28;20113;-44
2021/03/19 12:29:36;;;;;;;2.08;1.83;;;14.70;56.70;;;;;;4195411;28;20143;-44
2021/03/19 12:31:57;;;;;;;4.28;3.83;;;14.60;56.70;;;;;;4194840;28;20052;-44
2021/03/19 12:34:18;;;;;;;3.25;1.65;;;14.60;56.90;;;;;;4186629;28;20053;-44
2021/03/19 12:36:39;;;;;;;0.13;0.13;;;14.60;56.80;;;;;;4195648;28;20542;-44
2021/03/19 12:39:00;;;;;;;1.10;1.10;;;14.60;56.90;;;;;;4195502;28;20055;-44
2021/03/19 12:41:23;;;;;;;0.25;0.25;;;14.50;57.00;;;;;;4195317;28;20044;-45
2021/03/19 12:43:44;;;;;;;1.02;1.02;;;14.60;57.00;;;;;;4162453;28;20053;-43
2021/03/19 12:46:06;;;;;;;0.32;0.32;;;14.50;56.90;;;;;;4162206;28;20078;-43
2021/03/19 12:48:27;;;;;;;0.17;0.17;;;14.50;57.00;;;;;;4162408;28;20447;-43
2021/03/19 12:50:48;;;;;;;0.75;0.75;;;14.50;56.90;;;;;;4161851;28;20053;-44
2021/03/19 12:53:13;;;;;;;0.70;0.70;;;14.40;56.80;;;;;;4153651;28;20053;-43